Home > Products > Valid Products > TAF

000
FTUS46 KLOX 311100
TAFLGB
TAF
KLGB 311140Z 3112/0112 VRB03KT P6SM BKN020 BKN120
     FM311700 VRB03KT P6SM SCT025 BKN100
     FM312100 21007KT P6SM SCT030 SCT250
     FM312300 28007KT P6SM SCT250
     FM010400 VRB03KT P6SM SKC=



000
FTUS46 KLOX 311100
TAFWJF
TAF
KWJF 311140Z 3112/0112 VRB06KT P6SM BKN100
     FM311800 05007KT P6SM BKN200
     FM312100 05015G22KT P6SM SCT250
     FM010200 27007KT P6SM SKC=



000
FTUS46 KLOX 311100
TAFSBP
TAF
KSBP 311140Z 3112/0112 VRB03KT 1/4SM FG VV002
     FM311600 VRB03KT 2SM BR BKN005
     FM311800 VRB03KT P6SM SKC
     FM312100 32009KT P6SM SKC
     FM010300 VRB03KT P6SM SKC=



000
FTUS46 KLOX 311100
TAFPMD
TAF
KPMD 311140Z 3112/0112 VRB03KT P6SM BKN100
     FM311800 05007KT P6SM BKN200
     FM312100 05015G22KT P6SM SCT250
     FM010200 10007KT P6SM SKC=



000
FTUS46 KLOX 311100
TAFPRB
TAF
KPRB 311140Z 3112/0112 VRB03KT 1/4SM FG VV001
     FM311700 VRB03KT 1 1/2SM BR OVC002
     FM311900 VRB03KT P6SM SKC
     FM312100 35007KT P6SM SKC
     FM010300 12006KT P6SM SKC
     FM010900 VRB03KT 1/4SM FG VV001=



000
FTUS46 KLOX 311100
TAFBUR
TAF
KBUR 311140Z 3112/0112 VRB03KT P6SM OVC012
     FM311700 VRB03KT P6SM SCT250
     FM311900 03008KT P6SM SKC
     FM010300 VRB03KT P6SM SKC=



000
FTUS46 KLOX 311100
TAFLAX
TAF
KLAX 311140Z 3112/0118 VRB03KT P6SM BKN015 BKN150
     FM311800 VRB03KT P6SM SCT025 BKN100
     FM312000 25010KT P6SM SCT250
     FM010400 VRB03KT P6SM SKC
     FM010900 04006KT 6SM BR SKC
     FM011600 VRB03KT P6SM SKC=



000
FTUS46 KLOX 311100
TAFVNY
TAF
KVNY 311140Z 3112/0112 VRB03KT P6SM OVC008
     FM311700 VRB03KT P6SM SCT250
     FM312000 01012KT P6SM SKC
     FM010400 VRB03KT P6SM SKC=



000
FTUS46 KLOX 311100
TAFSMX
TAF
KSMX 311140Z 3112/0112 VRB03KT 3SM BR OVC003
     FM311700 VRB03KT P6SM SKC
     FM312000 30010KT P6SM SKC
     FM010300 VRB03KT P6SM SKC=



000
FTUS46 KLOX 311100
TAFSBA
TAF
KSBA 311140Z 3112/0112 VRB03KT P6SM SKC
     FM312000 25008KT P6SM SKC
     FM010300 VRB03KT P6SM SKC=



000
FTUS46 KLOX 310900 AAA
TAFVNY
TAF AMD
KVNY 310942Z 3110/0106 VRB03KT P6SM BKN008 BKN150
     FM311700 03008KT P6SM SCT250
     FM312000 02014KT P6SM SKC
     FM010300 34005KT P6SM SKC=



000
FTUS46 KLOX 310900 CCA
TAFPRB
TAF COR
KPRB 310908Z 3109/0106 VRB03KT 1/4SM FG VV001
     FM311800 VRB03KT 1 1/2SM BR OVC002
     FM311900 VRB03KT P6SM SKC
     FM312100 36007KT P6SM SKC
     FM010300 11004KT P6SM SKC=



000
FTUS46 KLOX 310900 AAA
TAFPRB
TAF AMD
KPRB 310906Z 3109/0106 VRB03KT 2SM BR SCT002
     FM311100 VRB03KT 1/4SM FG VV001
     FM311800 VRB03KT 1 1/2SM BR OVC002
     FM311900 VRB03KT P6SM SKC
     FM312100 36007KT P6SM SKC
     FM010300 11004KT P6SM SKC=



000
FTUS46 KLOX 310900 AAA
TAFLAX
TAF AMD
KLAX 310900Z 3109/0112 05006KT P6SM SCT060 BKN120
     FM311200 VRB03KT P6SM BKN020 BKN100
     FM311800 VRB03KT P6SM SCT025 BKN100
     FM312000 25011KT P6SM SCT250
     FM010300 26004KT P6SM SKC
     FM010800 05005KT P6SM SKC=



000
FTUS46 KLOX 310800 AAA
TAFSBP
TAF AMD
KSBP 310816Z 3108/0106 33008KT P6SM BKN004
     FM311500 VRB03KT P6SM SKC
     FM311800 34005KT P6SM SKC
     FM312100 32009KT P6SM SKC
     FM010300 VRB03KT P6SM SKC=



000
FTUS46 KLOX 310700 AAA
TAFSMX
TAF AMD
KSMX 310706Z 3107/0106 29006KT 1/4SM FG VV002
     FM311300 VRB03KT P6SM SKC
     FM311800 36005KT P6SM SKC
     FM312100 30010KT P6SM SKC
     FM010300 01004KT P6SM SKC=



000
FTUS46 KLOX 310500 RRA
TAFVNY
TAF
KVNY 310540Z 3106/0106 VRB03KT P6SM BKN150
     FM311700 03008KT P6SM SCT250
     FM312000 02014KT P6SM SKC
     FM010300 34005KT P6SM SKC=



000
FTUS46 KLOX 310500 RRA
TAFSBP
TAF
KSBP 310540Z 3106/0106 33008KT P6SM SKC
     FM310700 VRB03KT P6SM SKC
     FM311800 34005KT P6SM SKC
     FM312100 32009KT P6SM SKC
     FM010300 VRB03KT P6SM SKC=



000
FTUS46 KLOX 310500 RRA
TAFWJF
TAF
KWJF 310540Z 3106/0106 27009KT P6SM OVC100
     FM310900 VRB03KT P6SM OVC100
     FM311800 03007KT P6SM BKN200
     FM312000 03015G22KT P6SM SCT250
     FM010200 25008KT P6SM SKC=



000
FTUS46 KLOX 310500 RRA
TAFPRB
TAF
KPRB 310540Z 3106/0106 VRB03KT P6SM SKC
     FM311300 VRB03KT 1/2SM FG VV001
     FM311800 VRB03KT 1 1/2SM BR OVC002
     FM311900 VRB03KT P6SM SKC
     FM312100 36007KT P6SM SKC
     FM010300 11004KT P6SM SKC=



000
FTUS46 KLOX 310500 RRA
TAFLGB
TAF
KLGB 310540Z 3106/0106 VRB03KT P6SM BKN150
     FM310900 VRB03KT P6SM BKN020 BKN120
     FM311800 VRB03KT P6SM SCT025 BKN100
     FM312100 21007KT P6SM SCT030 SCT250
     FM312300 28007KT P6SM SCT250
     FM010400 VRB03KT P6SM SKC=



000
FTUS46 KLOX 310500 RRA
TAFPMD
TAF
KPMD 310540Z 3106/0106 22006KT P6SM BKN100
     FM311400 VRB03KT P6SM BKN100
     FM311800 02008KT P6SM BKN200
     FM312100 03015G22KT P6SM SCT250
     FM010200 17007KT P6SM SKC=



000
FTUS46 KLOX 310500 RRA
TAFSMX
TAF
KSMX 310540Z 3106/0106 29006KT 4SM BR SCT012
     FM310800 VRB03KT P6SM SKC
     FM311800 36005KT P6SM SKC
     FM312100 30010KT P6SM SKC
     FM010300 01004KT P6SM SKC=



000
FTUS46 KLOX 310500 RRA
TAFLAX
TAF
KLAX 310540Z 3106/0112 VRB03KT P6SM SCT100 BKN150
     FM310800 05006KT P6SM SCT060 BKN120
     FM311200 VRB03KT P6SM BKN020 BKN100
     FM311800 VRB03KT P6SM SCT025 BKN100
     FM312000 25011KT P6SM SCT250
     FM010300 26004KT P6SM SKC
     FM010800 05005KT P6SM SKC=



000
FTUS46 KLOX 310500 RRA
TAFBUR
TAF
KBUR 310540Z 3106/0106 VRB03KT P6SM BKN150
     FM311700 04008KT P6SM SCT250
     FM312200 02012KT P6SM SKC
     FM010300 02005KT P6SM SKC=



000
FTUS46 KLOX 310500 RRA
TAFSBA
TAF
KSBA 310540Z 3106/0106 VRB03KT P6SM SKC
     FM312100 27008KT P6SM SKC
     FM010300 VRB03KT P6SM SKC=



000
FTUS46 KLOX 310500 AAC
TAFSBP
TAF AMD
KSBP 310500Z 3105/3124 33008KT P6SM FEW009
     FM310700 VRB03KT P6SM SKC
     FM311800 33005KT P6SM SKC
     FM312100 32009KT P6SM SKC=



000
FTUS46 KLOX 310400 AAB
TAFSBP
TAF AMD
KSBP 310416Z 3104/3124 33010KT P6SM OVC010
     FM310600 VRB03KT P6SM SKC
     FM311800 33005KT P6SM SKC
     FM312100 32009KT P6SM SKC=



000
FTUS46 KLOX 310300 AAC
TAFSMX
TAF AMD
KSMX 310355Z 3104/3124 28006KT 6SM BR OVC015
     FM310500 VRB03KT P6SM OVC012
     FM310900 VRB03KT P6SM SKC
     FM311800 04005KT P6SM SKC
     FM312100 30010KT P6SM SKC=



000
FTUS46 KLOX 310300 AAA
TAFLAX
TAF AMD
KLAX 310353Z 3104/0106 22004KT P6SM SCT080 SCT110 BKN200
     FM310700 VRB03KT P6SM SCT060 BKN120
     FM311300 VRB03KT P6SM BKN020 BKN100
     FM311900 12004KT P6SM SCT025 SCT250
     FM312100 25007KT P6SM SCT250
     FM312300 25012KT P6SM SCT250
     FM010300 26004KT P6SM SKC=



000
FTUS46 KLOX 310200 AAB
TAFSMX
TAF AMD
KSMX 310213Z 3102/3124 28007KT P6SM SCT008
     FM310500 VRB03KT P6SM SKC
     FM311800 04005KT P6SM SKC
     FM312100 30010KT P6SM SKC=



000
FTUS46 KLOX 310000 AAA
TAFSBP
TAF AMD
KSBP 310003Z 3100/3124 32020G28KT P6SM SKC
     FM310200 30010KT P6SM SKC
     FM310400 VRB03KT P6SM SKC
     FM311800 33005KT P6SM SKC
     FM312100 32009KT P6SM SKC=



000
FTUS46 KLOX 310000 AAA
TAFSMX
TAF AMD
KSMX 310002Z 3100/3124 28016KT P6SM BKN010
     FM310200 28007KT P6SM BKN008
     FM310500 VRB03KT P6SM SKC
     FM311800 04005KT P6SM SKC
     FM312100 30010KT P6SM SKC=



000
FTUS46 KLOX 302300 RRA
TAFPRB
TAF
KPRB 302340Z 3100/3124 07006KT P6SM SKC
     FM310400 VRB03KT P6SM SKC
     FM311300 VRB03KT 1/2SM FG VV001
     FM311800 VRB03KT 1 1/2SM BR OVC002
     FM311900 VRB03KT P6SM SKC
     FM312200 10006KT P6SM SKC=



000
FTUS46 KLOX 302300 RRA
TAFLGB
TAF
KLGB 302340Z 3100/3124 29007KT P6SM BKN100
     FM310400 VRB03KT P6SM SCT050 BKN120
     FM311100 VRB03KT P6SM BKN020 BKN120
     FM311700 04005KT P6SM BKN025 BKN100
     FM311900 17005KT P6SM SCT025 BKN100
     FM312100 21007KT P6SM SCT030 BKN100=



000
FTUS46 KLOX 302300 RRA
TAFVNY
TAF
KVNY 302340Z 3100/3124 32005KT P6SM BKN060 OVC090
     FM310200 VRB03KT P6SM SCT050 BKN100
     FM311700 03008KT P6SM SCT250
     FM312000 01012KT P6SM SKC=



000
FTUS46 KLOX 302300 RRA
TAFBUR
TAF
KBUR 302340Z 3100/3124 20005KT P6SM SCT040 BKN060
     FM310200 VRB03KT P6SM SCT050 BKN100
     FM311700 08007KT P6SM SKC
     FM312100 02012KT P6SM SKC=



000
FTUS46 KLOX 302300 RRA
TAFPMD
TAF
KPMD 302340Z 3100/3124 08004KT P6SM BKN100
     FM310200 25006KT P6SM BKN100
     FM310800 20005KT P6SM SCT150 BKN200
     FM311400 34004KT P6SM BKN200
     FM311800 03011KT P6SM BKN200
     FM312100 05017G23KT P6SM SCT250=



000
FTUS46 KLOX 302300 RRA
TAFSBP
TAF
KSBP 302340Z 3100/3124 32012KT P6SM SKC
     FM310200 30008KT P6SM SKC
     FM310400 VRB03KT P6SM SKC
     FM311800 33005KT P6SM SKC
     FM312100 32009KT P6SM SKC=



000
FTUS46 KLOX 302300 RRA
TAFSBA
TAF
KSBA 302340Z 3100/3124 24007KT P6SM SCT120
     FM310200 VRB03KT P6SM SKC
     FM312100 24007KT P6SM SKC=



000
FTUS46 KLOX 302300 RRA
TAFWJF
TAF
KWJF 302340Z 3100/3124 02005KT P6SM VCSH BKN080 OVC100
     FM310100 29007KT P6SM BKN080 OVC100
     FM310900 VRB03KT P6SM OVC100
     FM311800 01006KT P6SM BKN200
     FM312000 02017G23KT P6SM SCT250=



000
FTUS46 KLOX 302300 RRA
TAFSMX
TAF
KSMX 302340Z 3100/3124 31012KT P6SM SCT200
     FM310300 VRB03KT P6SM SKC
     FM311800 04005KT P6SM SKC
     FM312100 30010KT P6SM SKC=



000
FTUS46 KLOX 302300 RRA
TAFLAX
TAF
KLAX 302340Z 3100/0106 27008KT P6SM VCTS BKN080CB BKN150
      TEMPO 3100/3101 27010KT P6SM -TSRA BKN080CB
     FM310100 27007KT P6SM SCT080 BKN120
     FM310700 VRB03KT P6SM SCT060 BKN120
     FM311300 VRB03KT P6SM BKN020 BKN100
     FM311900 12004KT P6SM SCT025 SCT250
     FM312100 25007KT P6SM SCT250
     FM312300 25012KT P6SM SCT250
     FM010300 26004KT P6SM SKC=



000
FTUS46 KLOX 302200 AAA
TAFVNY
TAF AMD
KVNY 302205Z 3022/3118 17007KT P6SM -SHRA VCTS BKN080CB OVC100
     FM302330 17007KT P6SM SCT080 OVC120
     FM310200 VRB03KT P6SM SCT050 BKN150
     FM310800 VRB03KT P6SM SCT150 SCT250=



000
FTUS46 KLOX 302200 AAA
TAFBUR
TAF AMD
KBUR 302204Z 3022/3118 17007KT P6SM -SHRA VCTS BKN080CB OVC100
     FM302330 17007KT P6SM SCT080 OVC120
     FM310200 VRB03KT P6SM SCT050 BKN150
     FM310800 VRB03KT P6SM SCT150 SCT250=



000
FTUS46 KLOX 302000 AAA
TAFLAX
TAF AMD
KLAX 302046Z 3021/3124 27008KT P6SM SCT050 BKN120
     FM310300 VRB03KT P6SM SCT050 BKN150
     FM311300 VRB03KT P6SM BKN015
     FM311900 15006KT P6SM SCT015 SCT250
     FM312100 25007KT P6SM SCT250=



000
FTUS46 KLOX 301700
TAFLGB
TAF
KLGB 301737Z 3018/3118 VRB03KT P6SM -SHRA SCT050 OVC100
     FM302100 19007KT P6SM OVC100
     FM310200 VRB03KT P6SM SCT050 BKN150
     FM311100 VRB03KT P6SM BKN017=



000
FTUS46 KLOX 301700
TAFSBA
TAF
KSBA 301737Z 3018/3118 VRB03KT P6SM BKN140
     FM302200 25007KT P6SM SCT150 SCT250
     FM310200 VRB03KT P6SM SKC=



000
FTUS46 KLOX 301700
TAFWJF
TAF
KWJF 301737Z 3018/3118 29007KT P6SM -SHRA SCT050 BKN080
     FM310300 VRB03KT P6SM SCT060 BKN100
     FM311100 36007KT P6SM SCT050=



000
FTUS46 KLOX 301700
TAFBUR
TAF
KBUR 301737Z 3018/3118 VRB03KT P6SM -SHRA SCT060 OVC100
     FM302200 17007KT P6SM SCT060 OVC120
     FM310200 VRB03KT P6SM SCT050 BKN150
     FM310800 VRB03KT P6SM SCT150 SCT250=



000
FTUS46 KLOX 301700
TAFLAX
TAF
KLAX 301737Z 3018/3124 VRB03KT P6SM -SHRA SCT050 OVC100
     FM302100 27008KT P6SM SCT050 BKN120
     FM310300 VRB03KT P6SM SCT050 BKN150
     FM311300 VRB03KT P6SM BKN015
     FM311900 15006KT P6SM SCT015 SCT250
     FM312100 25007KT P6SM SCT250=



000
FTUS46 KLOX 301700
TAFPMD
TAF
KPMD 301737Z 3018/3118 34007KT P6SM -SHRA SCT050 BKN080
     FM310100 VRB03KT P6SM SCT060 BKN150
     FM311100 36007KT P6SM SCT050=



000
FTUS46 KLOX 301700
TAFVNY
TAF
KVNY 301737Z 3018/3118 36007KT P6SM -SHRA SCT060 OVC100
     FM302200 34007KT P6SM SCT060 OVC100
     FM310200 VRB03KT P6SM SCT050 BKN150
     FM310800 VRB03KT P6SM SCT150 SCT250=



000
FTUS46 KLOX 301700
TAFPRB
TAF
KPRB 301737Z 3018/3118 VRB03KT 1/2SM FG VV001
     FM301930 VRB03KT P6SM SKC
     FM302300 10007KT P6SM SKC
     FM310300 VRB03KT P6SM SKC
     FM311300 VRB03KT 1/2SM FG VV001=



000
FTUS46 KLOX 301700
TAFSMX
TAF
KSMX 301737Z 3018/3118 VRB03KT P6SM SKC
     FM302100 30012KT P6SM SKC
     FM310300 VRB03KT P6SM SKC=



000
FTUS46 KLOX 301700
TAFSBP
TAF
KSBP 301737Z 3018/3118 VRB03KT P6SM SKC
     FM302100 31012KT P6SM SKC
     FM310300 VRB03KT P6SM SKC=



000
FTUS46 KLOX 301500 AAA
TAFVNY
TAF AMD
KVNY 301521Z 3015/3112 36008KT P6SM -SHRA OVC080
     FM302200 14006KT P6SM OVC080
     FM310200 VRB03KT P6SM SCT050 BKN100=



000
FTUS46 KLOX 301500 AAA
TAFLGB
TAF AMD
KLGB 301520Z 3015/3112 VRB03KT P6SM -SHRA OVC080
     FM302100 19007KT P6SM OVC080
     FM310200 VRB03KT P6SM SCT050 BKN100=



000
FTUS46 KLOX 301500 AAA
TAFBUR
TAF AMD
KBUR 301520Z 3015/3112 VRB03KT P6SM -SHRA OVC080
     FM302200 17007KT P6SM OVC080
     FM310200 VRB03KT P6SM SCT050 BKN100=



000
FTUS46 KLOX 301400 AAA
TAFLAX
TAF AMD
KLAX 301443Z 3015/3118 VRB03KT P6SM -SHRA OVC080
     FM302100 27008KT P6SM OVC080
     FM310300 VRB03KT P6SM SCT050 BKN100
     FM311300 06006KT P6SM BKN120=



000
FTUS46 KLOX 301100 CCA
TAFPRB
TAF COR
KPRB 301156Z 3012/3112 VRB03KT 1SM BR SKC
     FM301300 VRB03KT 1/2SM FG VV001
     FM301800 VRB03KT 1SM BR BKN002
     FM301930 VRB03KT P6SM SKC
     FM302300 10007KT P6SM SKC
     FM310300 VRB03KT P6SM SKC=



000
FTUS46 KLOX 301100
TAFPMD
TAF
KPMD 301122Z 3012/3112 VRB03KT P6SM BKN040 OVC080
     FM301800 35008KT P6SM SCT050 BKN080
     FM310300 VRB03KT P6SM SCT060 BKN100=



000
FTUS46 KLOX 301100
TAFBUR
TAF
KBUR 301122Z 3012/3112 32007KT P6SM OVC080
     FM301600 VRB03KT P6SM OVC080
     FM302200 17007KT P6SM OVC080
     FM310200 VRB03KT P6SM SCT050 BKN100=



000
FTUS46 KLOX 301100
TAFLGB
TAF
KLGB 301122Z 3012/3112 VRB03KT P6SM OVC080
     FM302100 19007KT P6SM OVC080
     FM310200 VRB03KT P6SM SCT050 BKN100=



000
FTUS46 KLOX 301100
TAFLAX
TAF
KLAX 301122Z 3012/3118 VRB03KT P6SM OVC100
     FM302100 27008KT P6SM OVC080
     FM310300 VRB03KT P6SM SCT050 BKN100
     FM311300 06006KT P6SM BKN120=



000
FTUS46 KLOX 301100
TAFSBP
TAF
KSBP 301122Z 3012/3112 VRB03KT P6SM SKC
     FM302100 31012KT P6SM SKC
     FM310300 VRB03KT P6SM SKC=



000
FTUS46 KLOX 301100
TAFSMX
TAF
KSMX 301122Z 3012/3112 VRB03KT P6SM SKC
     FM302100 30012KT P6SM SKC
     FM310300 VRB03KT P6SM SKC=



000
FTUS46 KLOX 301100
TAFWJF
TAF
KWJF 301122Z 3012/3112 26007KT P6SM BKN050 OVC080
     FM301800 35008KT P6SM SCT050 BKN080
     FM310300 VRB03KT P6SM SCT060 BKN100=



000
FTUS46 KLOX 301100
TAFSBA
TAF
KSBA 301122Z 3012/3112 VRB03KT P6SM SCT120
     FM302200 25007KT P6SM SKC
     FM310200 VRB03KT P6SM SKC=



000
FTUS46 KLOX 301100
TAFPRB
TAF
KPRB 301122Z 3012/3112 VRB03KT 3SM BR SKC
     FM301400 VRB03KT 1/2SM FG VV001
     FM301800 VRB03KT 1SM BR BKN002
     FM301930 VRB03KT P6SM SKC
     FM302300 10007KT P6SM SKC
     FM310300 VRB03KT P6SM SKC=



000
FTUS46 KLOX 301100
TAFVNY
TAF
KVNY 301122Z 3012/3112 VRB03KT P6SM OVC080
     FM301400 36008KT P6SM OVC080
     FM302200 14006KT P6SM OVC080
     FM310200 VRB03KT P6SM SCT050 BKN100=



000
FTUS46 KLOX 301000 AAA
TAFPRB
TAF AMD
KPRB 301001Z 3010/3106 VRB03KT 6SM BR SKC
     FM301400 VRB03KT 1/2SM FG VV001
     FM301800 VRB03KT 1 1/2SM BR BKN002
     FM301930 VRB03KT P6SM SKC
     FM302200 34006KT P6SM SKC
     FM310300 10005KT P6SM SKC=



000
FTUS46 KLOX 301000 AAA
TAFSBP
TAF AMD
KSBP 301001Z 3010/3106 VRB03KT P6SM SCT200
     FM301200 VRB03KT 5SM BR SCT200
     FM301600 VRB03KT P6SM SKC
     FM302100 31009KT P6SM SKC
     FM310300 VRB03KT P6SM SKC=



000
FTUS46 KLOX 300800 AAA
TAFLAX
TAF AMD
KLAX 300850Z 3009/3112 VRB04KT P6SM OVC080
     FM302000 26008KT P6SM BKN070 OVC100
     FM310500 VRB03KT P6SM OVC060
     FM310900 12005KT P6SM VCSH BKN050 OVC080=



000
FTUS46 KLOX 300600 CCA
TAFPRB
TAF COR
KPRB 300624Z 3006/3106 VRB03KT 4SM BR SKC
     FM301400 VRB03KT 1/2SM FG VV001
     FM301800 VRB03KT 1 1/2SM BR BKN002
     FM301930 VRB03KT P6SM SKC
     FM302200 34006KT P6SM SKC
     FM310300 10005KT P6SM SKC=



000
FTUS46 KLOX 300600 AAA
TAFWJF
TAF AMD
KWJF 300602Z 3006/3106 26007KT P6SM -SHRA OVC060
     FM301800 35008KT P6SM VCSH SCT050 BKN080
     FM310300 VRB05KT P6SM VCSH SCT060 BKN100=



000
FTUS46 KLOX 300600 AAA
TAFPMD
TAF AMD
KPMD 300601Z 3006/3106 VRB05KT P6SM VCSH BKN060 OVC080
     FM301800 35008KT P6SM VCSH SCT050 BKN080
     FM310300 VRB05KT P6SM VCSH SCT060 BKN100=



000
FTUS46 KLOX 300500 AAA
TAFVNY
TAF AMD
KVNY 300555Z 3006/3106 VRB03KT P6SM OVC110
     FM301800 35006KT P6SM BKN070 OVC100
     FM302300 18006KT P6SM BKN070 OVC100
     FM310300 VRB03KT P6SM BKN060 OVC100=



000
FTUS46 KLOX 300500 RRA
TAFWJF
TAF
KWJF 300548Z 3006/3106 26007KT P6SM BKN100 OVC150
     FM301600 VRB03KT P6SM SCT060 BKN100
     FM302100 29008KT P6SM SCT050 BKN080=



000
FTUS46 KLOX 300500 RRA
TAFVNY
TAF
KVNY 300548Z 3006/3106 VRB03KT P6SM OVC100
     FM301000 VRB03KT P6SM BKN070 OVC100
     FM302200 15006KT P6SM OVC100=



000
FTUS46 KLOX 300500 RRA
TAFLAX
TAF
KLAX 300548Z 3006/3112 VRB04KT P6SM BKN090 OVC110
     FM301500 VRB03KT P6SM BKN080 OVC100
     FM302000 26008KT P6SM BKN070 OVC100
     FM310500 VRB03KT P6SM OVC060
     FM310900 12005KT P6SM VCSH BKN050 OVC080=



000
FTUS46 KLOX 300500 RRA
TAFSMX
TAF
KSMX 300548Z 3006/3106 VRB03KT P6SM SCT200
     FM301800 34004KT P6SM SCT200
     FM302100 30010KT P6SM SKC
     FM310300 VRB03KT P6SM SKC=



000
FTUS46 KLOX 300500 RRA
TAFLGB
TAF
KLGB 300548Z 3006/3106 VRB03KT P6SM OVC110
     FM301500 VRB03KT 4SM BR BKN080 OVC100
     FM302000 19006KT P6SM BKN070 OVC100
     FM310000 24007KT P6SM BKN070 OVC100
     FM310300 VRB03KT P6SM BKN060 OVC090=



000
FTUS46 KLOX 300500 RRA
TAFPRB
TAF
KPRB 300548Z 3006/3106 VRB03KT P6SM SCT200
     FM301100 VRB03KT 4SM BR SKC
     FM301400 VRB03KT 1/2SM FG VV001
     FM301800 VRB03KT 1 1/2SM BR BKN002
     FM301930 VRB03KT P6SM SKC
     FM302200 34006KT P6SM SKC
     FM310300 10005KT P6SM SKC=



000
FTUS46 KLOX 300500 RRA
TAFBUR
TAF
KBUR 300548Z 3006/3106 VRB03KT P6SM OVC110
     FM301800 33005KT P6SM BKN070 OVC100
     FM302300 18006KT P6SM BKN070 OVC100
     FM310300 VRB03KT P6SM BKN060 OVC100=



000
FTUS46 KLOX 300500 RRA
TAFSBP
TAF
KSBP 300548Z 3006/3106 VRB03KT P6SM SCT200
     FM301000 VRB03KT 5SM BR SCT200
     FM301600 VRB03KT P6SM SKC
     FM302100 31009KT P6SM SKC
     FM310300 VRB03KT P6SM SKC=



000
FTUS46 KLOX 300500 RRA
TAFSBA
TAF
KSBA 300548Z 3006/3106 VRB03KT P6SM BKN200
     FM302100 21005KT P6SM SCT200
     FM302300 26007KT P6SM SKC
     FM310200 VRB03KT P6SM SKC=



000
FTUS46 KLOX 300500 RRA
TAFPMD
TAF
KPMD 300548Z 3006/3106 VRB05KT P6SM BKN100 OVC150
     FM302000 32008KT P6SM SCT050 BKN080=



000
FTUS46 KLOX 300300 AAA
TAFLAX
TAF AMD
KLAX 300346Z 3004/3106 26005KT P6SM BKN150 OVC200
     FM300500 VRB04KT P6SM BKN100
     FM300800 07005KT 5SM BR OVC100
     FM301500 VRB03KT 4SM BR OVC080
     FM302000 26008KT P6SM SCT030 BKN060
     FM310300 24004KT P6SM SCT025 BKN040=



000
FTUS46 KLOX 292300 RRA
TAFSBA
TAF
KSBA 292340Z 3000/3024 25007KT P6SM BKN200
     FM300200 VRB03KT P6SM BKN200
     FM302100 21005KT P6SM SCT200
     FM302300 26007KT P6SM SCT200=



000
FTUS46 KLOX 292300 RRA
TAFSBP
TAF
KSBP 292340Z 3000/3024 31010KT P6SM SCT200
     FM300400 VRB03KT P6SM SCT200
     FM301000 VRB03KT 5SM BR SCT200
     FM301600 VRB03KT P6SM SKC
     FM302100 31009KT P6SM SKC=



000
FTUS46 KLOX 292300 RRA
TAFLAX
TAF
KLAX 292340Z 3000/3106 26008KT P6SM BKN150
     FM300300 VRB04KT P6SM BKN100
     FM300800 07005KT 5SM BR OVC100
     FM301500 VRB03KT 4SM BR OVC080
     FM302000 26008KT P6SM SCT030 BKN060
     FM310300 24004KT P6SM SCT025 BKN040=



000
FTUS46 KLOX 292300 RRA
TAFWJF
TAF
KWJF 292340Z 3000/3024 06007KT P6SM BKN150
     FM300300 26007KT P6SM BKN100 OVC150
     FM301600 VRB03KT P6SM SCT060 BKN100
     FM302100 29008KT P6SM SCT050 BKN080=



000
FTUS46 KLOX 292300 RRA
TAFPMD
TAF
KPMD 292340Z 3000/3024 04007KT P6SM BKN150
     FM300200 VRB05KT P6SM BKN100 OVC150
     FM302000 32008KT P6SM SCT050 BKN080=



000
FTUS46 KLOX 292300 RRA
TAFSMX
TAF
KSMX 292340Z 3000/3024 30008KT P6SM SCT200
     FM300300 VRB03KT P6SM SCT200
     FM301800 34004KT P6SM SCT200
     FM302100 30010KT P6SM SKC=



000
FTUS46 KLOX 292300 RRA
TAFVNY
TAF
KVNY 292340Z 3000/3024 16006KT P6SM BKN150
     FM300300 VRB03KT P6SM OVC100
     FM301000 VRB03KT P6SM BKN070 OVC100
     FM302200 15006KT P6SM OVC100=



000
FTUS46 KLOX 292300 RRA
TAFLGB
TAF
KLGB 292340Z 3000/3024 19007KT P6SM BKN150
     FM300300 VRB03KT P6SM OVC100
     FM300900 VRB03KT 5SM BR OVC100
     FM301500 VRB03KT 4SM BR SCT025 BKN060
     FM302000 19006KT P6SM SCT025 BKN040=



000
FTUS46 KLOX 292300 RRA
TAFBUR
TAF
KBUR 292340Z 3000/3024 18005KT P6SM BKN150
     FM300300 VRB03KT P6SM OVC100
     FM301000 VRB03KT P6SM BKN070 OVC100
     FM302100 18006KT P6SM OVC100=



000
FTUS46 KLOX 292300 RRA
TAFPRB
TAF
KPRB 292340Z 3000/3024 08009KT P6SM SCT200
     FM300500 VRB03KT P6SM SCT200
     FM301100 VRB03KT 4SM BR SKC
     FM301400 VRB03KT 1/2SM FG VV001
     FM301800 VRB03KT 1 1/2SM BR BKN002
     FM301930 VRB03KT P6SM SKC
     FM302200 10007KT P6SM SKC=



000
FTUS46 KLOX 292100 AAA
TAFVNY
TAF AMD
KVNY 292121Z 2921/3018 33007KT P6SM OVC180
     FM292300 15005KT P6SM BKN150
     FM300300 VRB03KT P6SM OVC100
     FM301000 VRB03KT P6SM BKN070 OVC100=



000
FTUS46 KLOX 292000 AAA
TAFLAX
TAF AMD
KLAX 292052Z 2921/3024 00000KT P6SM OVC180
     FM292200 26008KT P6SM BKN150
     FM300300 VRB04KT P6SM BKN100
     FM300800 07005KT 5SM BR OVC100
     FM301500 VRB03KT 4SM BR OVC080
     FM302000 26008KT P6SM BKN060=



000
FTUS46 KLOX 291700
TAFBUR
TAF
KBUR 291732Z 2918/3018 00000KT P6SM SKC
     FM292200 18005KT P6SM BKN150
     FM300300 VRB03KT P6SM OVC100
     FM301000 VRB03KT P6SM BKN070 OVC100=



000
FTUS46 KLOX 291700
TAFPMD
TAF
KPMD 291732Z 2918/3018 00000KT P6SM OVC110
     FM292000 04008KT P6SM BKN150
     FM300200 VRB05KT P6SM BKN100 OVC120=



000
FTUS46 KLOX 291700
TAFSMX
TAF
KSMX 291732Z 2918/3018 00000KT P6SM BKN200
     FM292100 31008KT P6SM BKN200
     FM300400 VRB03KT P6SM SCT200
     FM300900 VRB03KT 4SM BR SCT200=



000
FTUS46 KLOX 291700
TAFPRB
TAF
KPRB 291732Z 2918/3018 00000KT 1/4SM FG VV001
     FM291900 VRB03KT P6SM BKN200
     FM292200 09009KT P6SM BKN200
     FM300300 VRB04KT P6SM SCT200
     FM301100 VRB03KT 1/2SM FG VV001=



000
FTUS46 KLOX 291700
TAFWJF
TAF
KWJF 291732Z 2918/3018 00000KT P6SM FEW120
     FM292100 05007KT P6SM BKN150
     FM300300 26007KT P6SM BKN100 OVC120=



000
FTUS46 KLOX 291700
TAFLGB
TAF
KLGB 291732Z 2918/3018 32003KT P6SM SKC
     FM292100 28006KT P6SM BKN150
     FM300200 VRB03KT P6SM OVC100
     FM300900 VRB03KT 5SM BR OVC100=



000
FTUS46 KLOX 291700
TAFSBP
TAF
KSBP 291732Z 2918/3018 00000KT P6SM BKN200
     FM292000 32009KT P6SM BKN200
     FM300400 VRB03KT P6SM SCT200
     FM301000 VRB03KT 5SM BR SCT200=



000
FTUS46 KLOX 291700
TAFSBA
TAF
KSBA 291732Z 2918/3018 02004KT P6SM OVC080
     FM292100 24008KT P6SM BKN200
     FM300200 VRB03KT P6SM BKN200=



000
FTUS46 KLOX 291700
TAFVNY
TAF
KVNY 291732Z 2918/3018 36013KT P6SM OVC170
     FM292300 15005KT P6SM BKN150
     FM300300 VRB03KT P6SM OVC100
     FM301000 VRB03KT P6SM BKN070 OVC100=



000
FTUS46 KLOX 291700
TAFLAX
TAF
KLAX 291732Z 2918/3024 04004KT P6SM BKN170
     FM292000 26008KT P6SM BKN150
     FM300300 VRB04KT P6SM BKN100
     FM300800 07005KT 5SM BR OVC100
     FM301500 VRB03KT 4SM BR OVC080
     FM302000 26008KT P6SM BKN060=



000
FTUS46 KLOX 291400 AAA
TAFLAX
TAF AMD
KLAX 291457Z 2915/3018 10003KT P6SM FEW080 SCT150 BKN220
     FM292000 26008KT P6SM BKN150
     FM300300 VRB04KT P6SM BKN100
     FM300800 07005KT 5SM BR BKN070 OVC100
     FM301500 VRB03KT 4SM BR BKN050 OVC080=



000
FTUS46 KLOX 291400 AAA
TAFVNY
TAF AMD
KVNY 291400Z 2914/3012 36012G19KT P6SM BKN170
     FM291700 35008KT P6SM BKN170
     FM292300 15005KT P6SM BKN150
     FM300300 VRB03KT P6SM OVC100
     FM301000 VRB03KT P6SM BKN070 OVC100=



000
FTUS46 KLOX 291300 AAA
TAFSBP
TAF AMD
KSBP 291359Z 2914/3012 VRB03KT 6SM BR BKN200
     FM291500 VRB03KT P6SM BKN200
     FM292000 32009KT P6SM BKN200
     FM300400 VRB03KT P6SM SCT200
     FM301000 VRB03KT 5SM BR SCT200=



000
FTUS46 KLOX 291300 AAA
TAFPRB
TAF AMD
KPRB 291353Z 2914/3012 VRB03KT 1/2SM FG VV002
     FM291800 VRB03KT 1 1/2SM BR OVC001
     FM291900 VRB03KT P6SM BKN200
     FM292100 08009KT P6SM BKN200
     FM300300 VRB04KT P6SM SCT200
     FM301100 VRB03KT 5SM BR SCT200=



000
FTUS46 KLOX 291100 RRA
TAFWJF
TAF
KWJF 291146Z 2912/3012 VRB04KT P6SM BKN170
     FM292100 05007KT P6SM BKN150
     FM300300 26007KT P6SM BKN100 OVC120=



000
FTUS46 KLOX 291100 RRA
TAFSBA
TAF
KSBA 291146Z 2912/3012 VRB03KT P6SM BKN200
     FM292100 24008KT P6SM BKN200
     FM300200 VRB03KT P6SM BKN200=



000
FTUS46 KLOX 291100 RRA
TAFBUR
TAF
KBUR 291146Z 2912/3012 VRB03KT P6SM BKN170
     FM292200 18005KT P6SM BKN150
     FM300300 VRB03KT P6SM OVC100
     FM301000 VRB03KT P6SM BKN070 OVC100=



000
FTUS46 KLOX 291100 RRA
TAFPRB
TAF
KPRB 291146Z 2912/3012 VRB03KT 2SM BR BKN200
     FM291300 VRB03KT 1/2SM FG VV001
     FM291800 VRB03KT 1 1/2SM BR OVC001
     FM291900 VRB03KT P6SM BKN200
     FM292100 08009KT P6SM BKN200
     FM300300 VRB04KT P6SM SCT200
     FM301100 VRB03KT 5SM BR SCT200=



000
FTUS46 KLOX 291100 RRA
TAFVNY
TAF
KVNY 291146Z 2912/3012 VRB03KT P6SM BKN170
     FM291800 35008KT P6SM BKN170
     FM292300 15005KT P6SM BKN150
     FM300300 VRB03KT P6SM OVC100
     FM301000 VRB03KT P6SM BKN070 OVC100=



000
FTUS46 KLOX 291100 RRA
TAFLAX
TAF
KLAX 291146Z 2912/3018 VRB03KT P6SM SCT150 BKN170
     FM292000 26008KT P6SM BKN150
     FM300300 VRB04KT P6SM BKN100
     FM300800 07005KT 5SM BR BKN070 OVC100
     FM301500 VRB03KT 4SM BR BKN050 OVC080=



000
FTUS46 KLOX 291100 RRA
TAFLGB
TAF
KLGB 291146Z 2912/3012 VRB03KT P6SM BKN170
     FM292100 17007KT P6SM BKN150
     FM300200 VRB03KT P6SM OVC100
     FM300900 VRB03KT 5SM BR BKN070 OVC100=



000
FTUS46 KLOX 291100 RRA
TAFSMX
TAF
KSMX 291146Z 2912/3012 VRB03KT P6SM BKN200
     FM292100 31008KT P6SM BKN200
     FM300400 VRB03KT P6SM SCT200
     FM300900 VRB03KT 4SM BR SCT200=



000
FTUS46 KLOX 291100 RRA
TAFPMD
TAF
KPMD 291146Z 2912/3012 VRB04KT P6SM BKN170
     FM292000 04008KT P6SM BKN150
     FM300200 VRB05KT P6SM BKN100 OVC120=



000
FTUS46 KLOX 291100 RRA
TAFSBP
TAF
KSBP 291146Z 2912/3012 VRB03KT 5SM BR BKN200
     FM291500 VRB03KT P6SM BKN200
     FM292000 32009KT P6SM BKN200
     FM300400 VRB03KT P6SM SCT200
     FM301000 VRB03KT 5SM BR SCT200=



000
FTUS46 KLOX 291100 AAA
TAFSBP
TAF AMD
KSBP 291106Z 2911/3006 VRB03KT 5SM BR BKN200
     FM291500 VRB03KT P6SM BKN200
     FM292000 32009KT P6SM BKN200
     FM300400 VRB03KT P6SM SCT250=



000
FTUS46 KLOX 291100 AAB
TAFPRB
TAF AMD
KPRB 291105Z 2911/3006 VRB03KT 2SM BR BKN200
     FM291300 VRB03KT 1/2SM FG VV001
     FM291800 VRB03KT 1 1/2SM BR OVC001
     FM291900 VRB03KT P6SM BKN200
     FM292100 08009KT P6SM BKN200
     FM300300 10005KT P6SM SCT250=



000
FTUS46 KLOX 290900 AAA
TAFPRB
TAF AMD
KPRB 290921Z 2909/3006 VRB03KT 2SM BR BKN200
     FM291100 VRB03KT 1/2SM FG VV001
     FM291800 VRB03KT 1 1/2SM BR OVC001
     FM291900 VRB03KT P6SM BKN200
     FM292100 08009KT P6SM BKN200
     FM300300 10005KT P6SM SCT250=



000
FTUS46 KLOX 290900 AAA
TAFLAX
TAF AMD
KLAX 290914Z 2909/3012 VRB03KT P6SM BKN150 BKN200
     FM292000 26008KT P6SM BKN200
     FM300300 24004KT P6SM BKN200
     FM300800 07004KT 5SM BR OVC100=



000
FTUS46 KLOX 290500
TAFPMD
TAF
KPMD 290534Z 2906/3006 VRB04KT P6SM BKN200
     FM292000 04008KT P6SM BKN200
     FM300200 23004KT P6SM BKN100 OVC200=



000
FTUS46 KLOX 290500
TAFLGB
TAF
KLGB 290534Z 2906/3006 VRB03KT P6SM BKN200
     FM292100 17007KT P6SM BKN200
     FM300200 VRB03KT P6SM OVC100=



000
FTUS46 KLOX 290500
TAFLAX
TAF
KLAX 290534Z 2906/3012 VRB03KT P6SM BKN150
     FM292000 26008KT P6SM BKN200
     FM300300 24004KT P6SM BKN200
     FM300800 07004KT 5SM BR OVC100=



000
FTUS46 KLOX 290500
TAFPRB
TAF
KPRB 290534Z 2906/3006 VRB03KT P6SM BKN200
     FM291100 VRB03KT 1/2SM FG VV001
     FM291800 VRB03KT 1 1/2SM BR OVC001
     FM291900 VRB03KT P6SM BKN200
     FM292100 08009KT P6SM BKN200
     FM300300 10005KT P6SM SCT250=



000
FTUS46 KLOX 290500
TAFVNY
TAF
KVNY 290534Z 2906/3006 34007KT P6SM BKN200
     FM290800 VRB03KT P6SM BKN200
     FM291800 35008KT P6SM BKN200
     FM292300 15005KT P6SM BKN200
     FM300300 VRB03KT P6SM OVC200=



000
FTUS46 KLOX 290500
TAFSMX
TAF
KSMX 290534Z 2906/3006 VRB03KT P6SM BKN200
     FM292100 31008KT P6SM BKN200
     FM300400 VRB03KT P6SM SCT250=



000
FTUS46 KLOX 290500
TAFSBA
TAF
KSBA 290534Z 2906/3006 VRB03KT P6SM BKN200
     FM292100 24008KT P6SM BKN200
     FM300200 VRB03KT P6SM BKN200=



000
FTUS46 KLOX 290500
TAFBUR
TAF
KBUR 290534Z 2906/3006 VRB03KT P6SM BKN200
     FM292200 18005KT P6SM BKN200
     FM300300 VRB03KT P6SM OVC200=



000
FTUS46 KLOX 290500
TAFSBP
TAF
KSBP 290534Z 2906/3006 VRB03KT P6SM BKN200
     FM292000 32009KT P6SM BKN200
     FM300400 VRB03KT P6SM SCT250=



000
FTUS46 KLOX 290500
TAFWJF
TAF
KWJF 290534Z 2906/3006 VRB04KT P6SM BKN200
     FM292100 05007KT P6SM BKN200
     FM300300 27007KT P6SM BKN100 OVC200=



000
FTUS46 KLOX 290300 AAA
TAFLAX
TAF AMD
KLAX 290306Z 2903/3006 26008KT P6SM BKN150 OVC200
     FM290500 VRB03KT P6SM BKN200
     FM292000 26008KT P6SM BKN200
     FM300300 25004KT P6SM BKN120 OVC200=



000
FTUS46 KLOX 282300
TAFSMX
TAF
KSMX 282336Z 2900/2924 32008KT P6SM BKN200
     FM290300 VRB03KT P6SM BKN200
     FM292100 31008KT P6SM BKN200=



000
FTUS46 KLOX 282300
TAFSBP
TAF
KSBP 282336Z 2900/2924 33008KT P6SM BKN200
     FM290300 VRB03KT P6SM BKN200
     FM292000 32009KT P6SM BKN200=



000
FTUS46 KLOX 282300
TAFPRB
TAF
KPRB 282336Z 2900/2924 08010KT P6SM BKN200
     FM290400 VRB03KT P6SM BKN200
     FM291100 VRB03KT 1/2SM FG VV001
     FM291800 VRB03KT 1 1/2SM BR OVC001
     FM291900 VRB03KT P6SM BKN200
     FM292100 08009KT P6SM BKN200=



000
FTUS46 KLOX 282300
TAFWJF
TAF
KWJF 282336Z 2900/2924 06007KT P6SM BKN200
     FM290300 29006KT P6SM BKN200
     FM290700 VRB03KT P6SM BKN200
     FM292100 05007KT P6SM BKN200=



000
FTUS46 KLOX 282300
TAFBUR
TAF
KBUR 282336Z 2900/2924 19004KT P6SM BKN200
     FM290200 VRB03KT P6SM BKN200
     FM292200 18005KT P6SM BKN200=



000
FTUS46 KLOX 282300
TAFLAX
TAF
KLAX 282336Z 2900/3006 28010KT P6SM BKN150 BKN200
     FM290400 VRB03KT P6SM BKN200
     FM292000 26008KT P6SM BKN200
     FM300300 25004KT P6SM BKN120 OVC200=



000
FTUS46 KLOX 282300
TAFVNY
TAF
KVNY 282336Z 2900/2924 34007KT P6SM BKN200
     FM290800 VRB03KT P6SM BKN200
     FM291800 35008KT P6SM BKN200
     FM292300 15005KT P6SM BKN200=



000
FTUS46 KLOX 282300
TAFSBA
TAF
KSBA 282336Z 2900/2924 26007KT P6SM BKN100 OVC200
     FM290200 VRB03KT P6SM BKN200
     FM292100 24007KT P6SM BKN200=



000
FTUS46 KLOX 282300
TAFLGB
TAF
KLGB 282336Z 2900/2924 30009KT P6SM BKN200
     FM290400 VRB03KT P6SM BKN200
     FM292100 17007KT P6SM BKN200=



000
FTUS46 KLOX 282300
TAFPMD
TAF
KPMD 282336Z 2900/2924 05008KT P6SM BKN200
     FM290300 VRB05KT P6SM BKN200
     FM292000 04008KT P6SM BKN200=



000
FTUS46 KLOX 282100 AAA
TAFLAX
TAF AMD
KLAX 282112Z 2821/2924 27008KT P6SM FEW110 SCT180 BKN250
     FM290400 VRB03KT P6SM BKN200
     FM292000 25006KT P6SM BKN200=



000
FTUS46 KLOX 281800 CCA
TAFPRB
TAF COR
KPRB 281807Z 2818/2918 00000KT 1/2SM FG VV001
     FM281900 VRB03KT 5SM BR SCT002 BKN200
     FM282000 08007KT P6SM BKN200
     FM290400 VRB03KT P6SM BKN200
     FM291100 VRB03KT 1/2SM FG VV001=



000
FTUS46 KLOX 281700 RRA
TAFWJF
TAF
KWJF 281743Z 2818/2918 32003KT P6SM BKN200
     FM282000 06007KT P6SM BKN200
     FM290300 29006KT P6SM BKN200=



000
FTUS46 KLOX 281700 RRA
TAFLAX
TAF
KLAX 281743Z 2818/2924 VRB05KT P6SM FEW120 BKN160 BKN200
     FM282000 26006KT P6SM BKN200
     FM290400 VRB03KT P6SM BKN200
     FM292000 25006KT P6SM BKN200=



000
FTUS46 KLOX 281700 RRA
TAFLGB
TAF
KLGB 281743Z 2818/2918 36005KT P6SM BKN200
     FM282000 28008KT P6SM BKN200
     FM290300 VRB03KT P6SM BKN200=



000
FTUS46 KLOX 281700 RRA
TAFSBP
TAF
KSBP 281743Z 2818/2918 22003KT P6SM BKN200
     FM282100 33008KT P6SM BKN200
     FM290300 VRB03KT P6SM BKN200
     FM291000 VRB03KT 6SM BR SCT005 BKN200=



000
FTUS46 KLOX 281700 RRA
TAFBUR
TAF
KBUR 281743Z 2818/2918 00000KT P6SM BKN200=



000
FTUS46 KLOX 281700 RRA
TAFVNY
TAF
KVNY 281743Z 2818/2918 34005KT P6SM BKN200
     FM290400 VRB03KT P6SM BKN200=



000
FTUS46 KLOX 281700 RRA
TAFSBA
TAF
KSBA 281743Z 2818/2918 00000KT P6SM OVC200
     FM282100 26007KT P6SM BKN200
     FM290200 VRB03KT P6SM BKN200=



000
FTUS46 KLOX 281700 RRA
TAFPMD
TAF
KPMD 281743Z 2818/2918 30005KT 1/2SM FG VV002
     FM281830 VRB03KT 5SM HZ SCT003
     FM282000 05007KT P6SM BKN200
     FM290300 VRB05KT P6SM BKN200=



000
FTUS46 KLOX 281700 RRA
TAFPRB
TAF
KPRB 281743Z 2818/2918 00000KT 1/2SM FG VV001
     FM281900 VRB03KT 5SM BR SCT002 BKN200
     FM282000 08007KT P6SM BKN200
     FM290400 VRB03KT P6SM BKN200
     FM291100 VRB03KT P6SM BKN200=



000
FTUS46 KLOX 281700 RRA
TAFSMX
TAF
KSMX 281743Z 2818/2918 00000KT P6SM BKN200
     FM282100 32008KT P6SM BKN200
     FM290300 VRB03KT P6SM BKN200
     FM290900 VRB03KT 5SM BR SCT005 BKN200=



000
FTUS46 KLOX 281500 AAC
TAFPRB
TAF AMD
KPRB 281551Z 2816/2912 01003KT 1/4SM FG VV001
     FM281900 07008KT P6SM BKN200
     FM290400 VRB03KT P6SM BKN200
     FM291100 VRB03KT P6SM BKN200=



000
FTUS46 KLOX 281500 AAC
TAFPRB
TAF AMD
KPRB 281551Z 2816/2912 01003KT 1/4SM FG VV001
     FM281900 07008KT P6SM BKN200
     FM290400 VRB03KT P6SM BKN200
     FM291100 VRB03KT P6SM BKN200=



000
FTUS46 KLOX 281500 AAB
TAFPMD
TAF AMD
KPMD 281551Z 2816/2912 27003KT 1/4SM FG BKN001 BKN020
     FM281800 04010KT P6SM BKN200
     FM282100 05007KT P6SM BKN200
     FM290300 VRB05KT P6SM BKN200=



000
FTUS46 KLOX 281500 AAB
TAFPMD
TAF AMD
KPMD 281551Z 2816/2912 27003KT 1/4SM FG BKN001 BKN020
     FM281800 04010KT P6SM BKN200
     FM282100 05007KT P6SM BKN200
     FM290300 VRB05KT P6SM BKN200=



000
FTUS46 KLOX 281500 AAB
TAFPRB
TAF AMD
KPRB 281517Z 2815/2912 35003KT 1SM BR FEW001
     FM281900 07008KT P6SM BKN200
     FM290400 VRB03KT P6SM BKN200
     FM291100 VRB03KT P6SM BKN200=



000
FTUS46 KLOX 281400 AAA
TAFLAX
TAF AMD
KLAX 281445Z 2815/2918 00000KT P6SM BKN160 BKN200
     FM281600 04005KT P6SM BKN200
     FM282000 26008KT P6SM BKN200
     FM290400 VRB03KT P6SM BKN200
     FM290900 VRB03KT P6SM BKN025 BKN200
     FM291700 VRB03KT P6SM SCT025 BKN200=



000
FTUS46 KLOX 281400 AAA
TAFPMD
TAF AMD
KPMD 281444Z 2815/2912 00000KT 6SM BR BKN003 BKN029
     FM281800 04010KT P6SM BKN200
     FM282100 05007KT P6SM BKN200
     FM290300 VRB05KT P6SM BKN200=



000
FTUS46 KLOX 281400 AAA
TAFPRB
TAF AMD
KPRB 281412Z 2814/2912 VRB03KT P6SM SCT004 BKN200
     FM281900 07008KT P6SM BKN200
     FM290400 VRB03KT P6SM BKN200
     FM291100 VRB03KT P6SM BKN200=



000
FTUS46 KLOX 281400 AAA
TAFPRB
TAF AMD
KPRB 281412Z 2814/2912 VRB03KT P6SM SCT004 BKN200
     FM281900 07008KT P6SM BKN200
     FM290400 VRB03KT P6SM BKN200
     FM291100 VRB03KT P6SM BKN200=



000
FTUS46 KLOX 281300 AAB
TAFSMX
TAF AMD
KSMX 281337Z 2814/2912 VRB03KT 6SM BR BKN200
     FM281600 03005KT P6SM BKN200
     FM282100 32008KT P6SM BKN200
     FM290300 VRB03KT P6SM BKN200
     FM290900 VRB03KT 5SM BR BKN200=



    US Dept of Commerce
    National Oceanic and Atmospheric Administration
    National Weather Service
    1325 East West Highway
    Silver Spring, MD 20910
    Page Author: NWS Internet Services Team
Disclaimer
Information Quality
Credits
Glossary
Privacy Policy
Freedom of Information Act (FOIA)
About Us
Career Opportunities